createdAt,value
2022-08-09T00:00:06.522Z,65.20
2022-08-09T00:02:48.958Z,65.80
2022-08-09T00:06:18.957Z,65.70
2022-08-09T00:08:04.707Z,66.10
2022-08-09T00:10:37.739Z,67.40
2022-08-09T00:13:06.702Z,68.70
2022-08-09T00:15:59.158Z,68.40
2022-08-09T00:18:30.203Z,68.50
2022-08-09T00:20:58.270Z,66.20
2022-08-09T00:23:56.447Z,68.00
2022-08-09T00:26:12.211Z,69.90
2022-08-09T00:28:40.371Z,68.80
2022-08-09T00:31:30.765Z,69.70
2022-08-09T00:33:54.695Z,69.80
2022-08-09T00:36:22.284Z,68.80
2022-08-09T00:38:54.109Z,69.30
2022-08-09T00:44:14.086Z,70.10
2022-08-09T00:44:25.628Z,68.30
2022-08-09T00:46:57.730Z,68.60
2022-08-09T00:49:31.389Z,68.70
2022-08-09T00:51:58.773Z,68.90
2022-08-09T00:54:35.083Z,69.40
2022-08-09T00:57:10.710Z,69.00
2022-08-09T00:59:41.540Z,69.00
2022-08-09T01:02:19.413Z,69.40
2022-08-09T01:04:53.114Z,68.50
2022-08-09T01:07:38.182Z,68.80
2022-08-09T01:10:31.954Z,68.90
2022-08-09T01:13:01.329Z,70.00
2022-08-09T01:15:30.853Z,68.90
2022-08-09T01:17:57.984Z,68.80
2022-08-09T01:20:44.948Z,70.90
2022-08-09T01:24:02.357Z,71.10
2022-08-09T01:26:53.079Z,70.00
2022-08-09T01:29:28.149Z,69.70
2022-08-09T01:32:31.325Z,69.10
2022-08-09T01:34:44.837Z,69.50
2022-08-09T01:37:16.446Z,69.00
2022-08-09T01:39:49.884Z,69.00
2022-08-09T01:42:17.042Z,68.70
2022-08-09T01:44:44.299Z,68.50
2022-08-09T01:47:13.597Z,69.70
2022-08-09T01:49:50.831Z,68.90
2022-08-09T01:52:21.873Z,68.20
2022-08-09T01:54:56.257Z,68.30
2022-08-09T01:57:40.087Z,68.30
2022-08-09T02:00:34.429Z,68.60
2022-08-09T02:02:58.889Z,69.30
2022-08-09T02:05:37.649Z,68.50
2022-08-09T02:08:38.630Z,67.80
2022-08-09T02:11:02.448Z,68.50
2022-08-09T02:13:40.209Z,68.20
2022-08-09T02:16:09.629Z,68.60
2022-08-09T02:18:38.030Z,68.60
2022-08-09T02:21:21.925Z,69.40
2022-08-09T02:24:00.003Z,69.30
2022-08-09T02:26:30.003Z,69.00
2022-08-09T02:28:59.581Z,69.10
2022-08-09T02:31:36.330Z,69.60
2022-08-09T02:34:13.856Z,69.60
2022-08-09T02:36:56.883Z,68.00
2022-08-09T02:39:39.673Z,67.70
2022-08-09T02:42:16.724Z,67.70
2022-08-09T02:44:48.634Z,68.40
2022-08-09T02:47:18.517Z,68.30
2022-08-09T02:50:01.694Z,68.90
2022-08-09T02:52:36.110Z,69.10
2022-08-09T02:55:03.404Z,68.90
2022-08-09T02:58:32.988Z,69.00
2022-08-09T03:00:34.880Z,68.90
2022-08-09T03:03:07.126Z,69.20
2022-08-09T03:05:35.210Z,68.20
2022-08-09T03:08:02.684Z,67.80
2022-08-09T03:10:29.565Z,68.30
2022-08-09T03:12:56.539Z,68.80
2022-08-09T03:15:24.569Z,69.40
2022-08-09T03:18:09.740Z,69.30
2022-08-09T03:20:38.284Z,69.20
2022-08-09T03:23:14.565Z,69.20
2022-08-09T03:25:58.724Z,69.50
2022-08-09T03:28:30.467Z,67.70
2022-08-09T03:30:57.865Z,69.40
2022-08-09T03:33:26.473Z,70.40
2022-08-09T03:36:16.390Z,70.90
2022-08-09T03:38:44.603Z,70.20
2022-08-09T03:41:16.384Z,69.90
2022-08-09T03:44:03.646Z,70.40
2022-08-09T03:46:32.387Z,69.60
2022-08-09T03:49:04.292Z,69.90
2022-08-09T03:51:55.296Z,69.20
2022-08-09T03:54:29.807Z,69.20
2022-08-09T03:56:59.597Z,69.40
2022-08-09T03:59:27.174Z,70.10
2022-08-09T04:01:54.358Z,68.50
2022-08-09T04:04:21.277Z,68.50
2022-08-09T04:06:51.352Z,68.60
2022-08-09T04:09:47.971Z,68.40
2022-08-09T04:12:11.932Z,68.50
2022-08-09T04:15:00.809Z,68.00
2022-08-09T04:17:29.734Z,68.70
2022-08-09T04:19:56.806Z,68.70
2022-08-09T04:22:23.555Z,69.40
2022-08-09T04:24:50.575Z,69.60
2022-08-09T04:27:17.560Z,70.40
2022-08-09T04:29:50.323Z,70.20
2022-08-09T04:32:23.804Z,69.60
2022-08-09T04:35:01.278Z,68.60
2022-08-09T04:37:45.617Z,68.40
2022-08-09T04:40:29.117Z,68.30
2022-08-09T04:43:00.411Z,68.50
2022-08-09T04:45:30.797Z,67.80
2022-08-09T04:48:04.096Z,68.30
2022-08-09T04:50:37.906Z,68.30
2022-08-09T04:53:13.215Z,69.40
2022-08-09T04:55:58.357Z,68.80
2022-08-09T04:58:31.671Z,69.10
2022-08-09T05:00:58.885Z,69.50
2022-08-09T05:03:42.946Z,68.40
2022-08-09T05:06:11.493Z,68.40
2022-08-09T05:08:38.484Z,69.00
2022-08-09T05:11:06.846Z,70.00
2022-08-09T05:13:38.954Z,70.30
2022-08-09T05:16:06.807Z,71.90
2022-08-09T05:18:50.899Z,71.40
2022-08-09T05:21:23.172Z,71.30
2022-08-09T05:23:58.018Z,71.90
2022-08-09T05:26:36.004Z,71.70
2022-08-09T05:29:17.705Z,72.30
2022-08-09T05:31:52.127Z,71.80
2022-08-09T05:34:29.797Z,71.60
2022-08-09T05:36:57.548Z,71.60
2022-08-09T05:39:28.421Z,71.60
2022-08-09T05:41:55.982Z,71.20
2022-08-09T05:44:29.083Z,71.20
2022-08-09T05:47:00.233Z,70.70
2022-08-09T05:50:32.073Z,71.50
2022-08-09T05:52:13.837Z,71.70
2022-08-09T05:54:42.033Z,72.00
2022-08-09T05:57:12.815Z,71.50
2022-08-09T05:59:41.795Z,71.20
2022-08-09T06:02:09.120Z,71.20
2022-08-09T06:04:36.881Z,70.90
2022-08-09T06:07:11.477Z,70.40
2022-08-09T06:09:54.356Z,70.70
2022-08-09T06:12:26.551Z,70.00
2022-08-09T06:14:53.248Z,70.30
2022-08-09T06:17:19.878Z,70.30
2022-08-09T06:19:46.524Z,69.90
2022-08-09T06:22:15.788Z,70.20
2022-08-09T06:24:43.731Z,70.30
2022-08-09T06:27:10.471Z,69.70
2022-08-09T06:29:48.046Z,69.20
2022-08-09T06:33:00.999Z,68.40
2022-08-09T06:35:11.079Z,68.30
2022-08-09T06:37:53.235Z,67.60
2022-08-09T06:40:24.905Z,67.40
2022-08-09T06:42:51.856Z,65.90
2022-08-09T06:46:04.414Z,65.50
2022-08-09T06:48:05.217Z,64.30
2022-08-09T06:50:32.075Z,64.20
2022-08-09T06:53:00.685Z,63.90
2022-08-09T06:55:31.757Z,62.40
2022-08-09T06:58:03.159Z,63.70
2022-08-09T07:00:51.563Z,63.40
2022-08-09T07:03:18.116Z,63.10
2022-08-09T07:05:53.602Z,62.30
2022-08-09T07:08:30.611Z,62.50
2022-08-09T07:10:57.348Z,62.30
2022-08-09T07:13:28.100Z,62.40
2022-08-09T07:16:41.750Z,61.80
2022-08-09T07:18:43.210Z,62.00
2022-08-09T07:21:10.326Z,61.80
2022-08-09T07:23:46.755Z,61.60
2022-08-09T07:26:23.560Z,61.90
2022-08-09T07:29:09.046Z,60.90
2022-08-09T07:31:38.617Z,60.90
2022-08-09T07:34:19.395Z,60.90
2022-08-09T07:36:50.872Z,60.80
2022-08-09T07:39:20.539Z,60.60
2022-08-09T07:42:06.556Z,60.80
2022-08-09T07:44:52.964Z,61.10
2022-08-09T07:47:20.944Z,59.80
2022-08-09T07:50:05.119Z,57.30
2022-08-09T07:52:35.846Z,57.00
2022-08-09T07:55:08.786Z,57.80
2022-08-09T07:57:36.629Z,56.80
2022-08-09T08:00:04.546Z,57.20
2022-08-09T08:02:43.003Z,55.00
2022-08-09T08:05:18.042Z,55.20
2022-08-09T08:08:44.668Z,54.80
2022-08-09T08:10:34.287Z,54.40
2022-08-09T08:13:01.425Z,54.50
2022-08-09T08:15:30.621Z,53.80
2022-08-09T08:18:02.263Z,55.20
2022-08-09T08:20:33.151Z,53.70
2022-08-09T08:23:06.546Z,53.20
2022-08-09T08:25:48.302Z,52.60
2022-08-09T08:28:18.137Z,52.00
2022-08-09T08:30:53.214Z,52.10
2022-08-09T08:33:24.218Z,51.40
2022-08-09T08:35:59.031Z,51.10
2022-08-09T08:38:27.959Z,51.50
2022-08-09T08:40:55.586Z,52.90
2022-08-09T08:43:23.714Z,52.20
2022-08-09T08:45:53.616Z,52.50
2022-08-09T08:48:31.826Z,51.60
2022-08-09T08:50:58.720Z,52.00
2022-08-09T08:53:32.074Z,52.60
2022-08-09T08:55:59.084Z,50.50
2022-08-09T08:58:29.481Z,49.30
2022-08-09T09:00:57.713Z,49.90
2022-08-09T09:03:33.287Z,49.30
2022-08-09T09:06:05.704Z,48.70
2022-08-09T09:08:40.382Z,48.20
2022-08-09T09:11:08.516Z,48.10
2022-08-09T09:13:55.158Z,47.30
2022-08-09T09:16:30.659Z,48.40
2022-08-09T09:19:36.554Z,48.70
2022-08-09T09:21:59.190Z,48.00
2022-08-09T09:24:28.970Z,49.40
2022-08-09T09:26:57.264Z,49.40
2022-08-09T09:30:05.423Z,48.30
2022-08-09T09:32:34.754Z,48.10
2022-08-09T09:35:02.187Z,49.00
2022-08-09T09:37:32.252Z,49.10
2022-08-09T09:39:59.848Z,47.90
2022-08-09T09:42:29.716Z,48.90
2022-08-09T09:44:58.217Z,48.10
2022-08-09T09:47:26.507Z,47.30
2022-08-09T09:50:14.297Z,49.40
2022-08-09T09:52:53.397Z,48.10
2022-08-09T09:55:32.143Z,48.40
2022-08-09T09:58:16.444Z,48.10
2022-08-09T10:00:52.742Z,49.10
2022-08-09T10:03:39.711Z,48.20
2022-08-09T10:06:06.674Z,47.90
2022-08-09T10:08:54.181Z,46.60
2022-08-09T10:12:00.703Z,47.40
2022-08-09T10:14:47.886Z,47.80
2022-08-09T10:17:40.340Z,46.30
2022-08-09T10:20:27.029Z,48.50
2022-08-09T10:23:12.359Z,46.40
2022-08-09T10:26:06.553Z,46.80
2022-08-09T10:28:28.698Z,47.00
2022-08-09T10:34:08.396Z,45.70
2022-08-09T10:36:28.996Z,45.50
2022-08-09T10:39:00.085Z,45.90
2022-08-09T10:41:28.068Z,45.20
2022-08-09T10:43:59.319Z,44.90
2022-08-09T10:46:54.573Z,45.40
2022-08-09T10:49:49.889Z,45.50
2022-08-09T10:52:26.487Z,45.10
2022-08-09T10:54:53.588Z,43.90
2022-08-09T10:57:20.365Z,43.30
2022-08-09T10:59:57.471Z,43.30
2022-08-09T11:03:46.690Z,44.30
2022-08-09T11:05:30.522Z,44.40
2022-08-09T11:08:17.886Z,44.20
2022-08-09T11:11:00.533Z,45.40
2022-08-09T11:13:51.295Z,43.70
2022-08-09T11:16:35.656Z,43.20
2022-08-09T11:19:09.957Z,45.00
2022-08-09T11:21:57.036Z,43.50
2022-08-09T11:24:51.566Z,44.10
2022-08-09T11:28:03.692Z,43.50
2022-08-09T11:30:32.290Z,43.40
2022-08-09T11:33:09.700Z,43.80
2022-08-09T11:35:49.105Z,44.70
2022-08-09T11:38:32.531Z,43.50
2022-08-09T11:41:13.463Z,44.20
2022-08-09T11:43:40.327Z,43.20
2022-08-09T11:46:06.975Z,41.60
2022-08-09T11:48:45.502Z,42.50
2022-08-09T11:52:54.072Z,43.00
2022-08-09T11:54:27.702Z,41.70
2022-08-09T11:57:15.735Z,41.20
2022-08-09T11:59:42.397Z,40.80
2022-08-09T12:02:34.158Z,41.50
2022-08-09T12:04:59.737Z,40.20
2022-08-09T12:07:41.150Z,41.30
2022-08-09T12:10:14.034Z,41.30
2022-08-09T12:12:57.283Z,42.20
2022-08-09T12:15:49.149Z,41.00
2022-08-09T12:18:16.975Z,41.70
2022-08-09T12:20:44.822Z,40.80
2022-08-09T12:23:13.229Z,41.10
2022-08-09T12:25:49.496Z,40.30
2022-08-09T12:29:12.074Z,39.40
2022-08-09T12:31:10.763Z,40.00
2022-08-09T12:34:01.182Z,39.70
2022-08-09T12:36:33.639Z,41.20
2022-08-09T12:39:00.923Z,39.90
2022-08-09T12:41:28.666Z,40.00
2022-08-09T12:44:05.910Z,39.70
2022-08-09T12:46:34.794Z,40.30
2022-08-09T12:49:03.609Z,41.50
2022-08-09T12:51:59.866Z,39.50
2022-08-09T12:54:17.768Z,41.00
2022-08-09T12:56:53.830Z,40.90
2022-08-09T12:59:24.876Z,40.40
2022-08-09T13:02:11.458Z,41.20
2022-08-09T13:04:41.774Z,40.90
2022-08-09T13:07:11.444Z,39.50
2022-08-09T13:09:40.776Z,40.30
2022-08-09T13:12:09.793Z,40.20
2022-08-09T13:14:42.653Z,40.80
2022-08-09T13:17:16.078Z,39.40
2022-08-09T13:20:10.457Z,39.20
2022-08-09T13:22:37.086Z,38.90
2022-08-09T13:25:14.158Z,38.90
2022-08-09T13:27:54.570Z,39.70
2022-08-09T13:31:53.549Z,39.50
2022-08-09T13:33:12.040Z,38.70
2022-08-09T13:36:24.162Z,39.00
2022-08-09T13:38:54.884Z,38.80
2022-08-09T13:41:59.115Z,39.40
2022-08-09T13:44:08.061Z,39.70
2022-08-09T13:47:17.762Z,37.00
2022-08-09T13:49:21.311Z,37.40
2022-08-09T13:52:01.400Z,37.00
2022-08-09T13:54:30.365Z,36.90
2022-08-09T13:56:57.261Z,36.30
2022-08-09T13:59:25.589Z,36.70
2022-08-09T14:01:56.185Z,36.60
2022-08-09T14:04:28.857Z,36.90
2022-08-09T14:06:56.495Z,36.50
2022-08-09T14:09:23.290Z,37.10
2022-08-09T14:11:50.847Z,35.90
2022-08-09T14:14:25.778Z,36.50
2022-08-09T14:16:54.397Z,36.30
2022-08-09T14:19:21.526Z,36.60
2022-08-09T14:21:49.392Z,37.50
2022-08-09T14:24:18.739Z,37.10
2022-08-09T14:26:51.839Z,36.20
2022-08-09T14:30:04.197Z,35.50
2022-08-09T14:32:06.932Z,35.60
2022-08-09T14:34:41.136Z,35.20
2022-08-09T14:37:08.270Z,35.10
2022-08-09T14:39:45.186Z,35.50
2022-08-09T14:42:31.384Z,35.80
2022-08-09T14:45:01.419Z,34.90
2022-08-09T14:47:45.397Z,34.50
2022-08-09T14:50:17.517Z,35.10
2022-08-09T14:52:47.758Z,35.20
2022-08-09T14:55:20.267Z,34.30
2022-08-09T14:57:48.996Z,35.80
2022-08-09T15:00:16.144Z,34.90
2022-08-09T15:02:42.770Z,34.60
2022-08-09T15:05:16.069Z,35.90
2022-08-09T15:07:43.645Z,34.60
2022-08-09T15:10:14.374Z,34.40
2022-08-09T15:12:44.899Z,35.30
2022-08-09T15:15:13.050Z,34.30
2022-08-09T15:17:42.556Z,34.40
2022-08-09T15:20:15.408Z,34.20
2022-08-09T15:24:01.179Z,34.50
2022-08-09T15:25:52.317Z,35.10
2022-08-09T15:28:28.105Z,34.60
2022-08-09T15:31:08.607Z,33.20
2022-08-09T15:34:17.785Z,34.10
2022-08-09T15:36:28.659Z,34.20
2022-08-09T15:38:56.501Z,33.30
2022-08-09T15:41:23.241Z,33.90
2022-08-09T15:43:58.570Z,33.70
2022-08-09T15:46:33.545Z,33.70
2022-08-09T15:49:21.882Z,33.60
2022-08-09T15:52:04.661Z,33.40
2022-08-09T15:54:43.091Z,33.20
2022-08-09T15:57:13.476Z,32.40
2022-08-09T15:59:40.163Z,32.80
2022-08-09T16:02:08.827Z,32.30
2022-08-09T16:04:40.153Z,32.40
2022-08-09T16:07:09.528Z,30.50
2022-08-09T16:10:02.484Z,30.80
2022-08-09T16:12:26.365Z,30.10
2022-08-09T16:14:57.839Z,29.30
2022-08-09T16:17:24.473Z,29.20
2022-08-09T16:20:03.986Z,29.60
2022-08-09T16:22:32.194Z,29.40
2022-08-09T16:25:01.487Z,29.00
2022-08-09T16:27:29.820Z,28.80
2022-08-09T16:30:00.787Z,28.50
2022-08-09T16:32:53.463Z,28.70
2022-08-09T16:35:56.150Z,28.10
2022-08-09T16:38:08.342Z,28.90
2022-08-09T16:40:40.971Z,28.90
2022-08-09T16:43:08.225Z,29.30
2022-08-09T16:45:35.036Z,28.70
2022-08-09T16:48:39.962Z,29.90
2022-08-09T16:50:59.627Z,30.60
2022-08-09T16:53:34.703Z,30.10
2022-08-09T16:56:03.869Z,29.60
2022-08-09T16:58:36.906Z,29.90
2022-08-09T17:01:04.358Z,30.00
2022-08-09T17:03:31.151Z,29.90
2022-08-09T17:06:08.231Z,29.40
2022-08-09T17:09:03.069Z,29.20
2022-08-09T17:11:40.758Z,29.20
2022-08-09T17:14:16.235Z,28.70
2022-08-09T17:16:59.404Z,29.60
2022-08-09T17:19:26.273Z,29.90
2022-08-09T17:21:55.436Z,29.70
2022-08-09T17:24:27.984Z,29.50
2022-08-09T17:26:58.201Z,29.20
2022-08-09T17:29:25.352Z,29.30
2022-08-09T17:32:00.169Z,29.10
2022-08-09T17:34:59.784Z,29.60
2022-08-09T17:37:19.464Z,29.40
2022-08-09T17:39:52.625Z,29.20
2022-08-09T17:42:41.104Z,28.70
2022-08-09T17:45:23.799Z,28.70
2022-08-09T17:47:55.821Z,28.50
2022-08-09T17:50:36.889Z,29.50
2022-08-09T17:53:19.511Z,29.50
2022-08-09T17:55:51.991Z,30.10
2022-08-09T17:58:24.338Z,30.30
2022-08-09T18:00:55.013Z,30.50
2022-08-09T18:03:24.384Z,31.20
2022-08-09T18:05:52.941Z,30.80
2022-08-09T18:08:22.189Z,31.30
2022-08-09T18:11:00.831Z,31.70
2022-08-09T18:13:43.037Z,31.70
2022-08-09T18:16:28.799Z,32.20
2022-08-09T18:18:57.007Z,32.30
2022-08-09T18:21:24.371Z,32.80
2022-08-09T18:24:12.467Z,32.90
2022-08-09T18:26:38.809Z,33.70
2022-08-09T18:30:40.619Z,34.90
2022-08-09T18:32:03.096Z,35.80
2022-08-09T18:34:31.590Z,37.40
2022-08-09T18:36:58.463Z,38.00
2022-08-09T18:39:25.712Z,39.10
2022-08-09T18:41:58.997Z,39.20
2022-08-09T18:44:26.075Z,39.50
2022-08-09T18:47:08.274Z,39.90
2022-08-09T18:49:43.354Z,40.30
2022-08-09T18:52:13.156Z,40.60
2022-08-09T18:54:49.803Z,40.70
2022-08-09T18:57:22.266Z,41.20
2022-08-09T18:59:55.663Z,41.60
2022-08-09T19:02:32.404Z,41.70
2022-08-09T19:05:19.585Z,41.80
2022-08-09T19:07:59.390Z,42.30
2022-08-09T19:10:39.094Z,42.50
2022-08-09T19:13:20.513Z,42.50
2022-08-09T19:15:56.645Z,42.80
2022-08-09T19:18:33.429Z,42.90
2022-08-09T19:21:08.833Z,42.90
2022-08-09T19:24:32.753Z,43.20
2022-08-09T19:26:29.200Z,43.20
2022-08-09T19:29:15.539Z,43.40
2022-08-09T19:31:46.529Z,43.80
2022-08-09T19:34:22.281Z,43.80
2022-08-09T19:36:54.051Z,44.40
2022-08-09T19:39:42.947Z,44.20
2022-08-09T19:42:08.268Z,44.40
2022-08-09T19:44:35.354Z,44.40
2022-08-09T19:47:02.814Z,44.60
2022-08-09T19:50:09.845Z,44.70
2022-08-09T19:52:18.568Z,44.90
2022-08-09T19:54:45.243Z,44.90
2022-08-09T19:57:12.222Z,45.30
2022-08-09T19:59:59.354Z,45.30
2022-08-09T20:04:07.437Z,45.20
2022-08-09T20:05:14.936Z,45.40
2022-08-09T20:07:59.500Z,45.50
2022-08-09T20:10:34.573Z,45.70
2022-08-09T20:13:05.189Z,46.00
2022-08-09T20:16:37.028Z,46.00
2022-08-09T20:18:19.573Z,46.10
2022-08-09T20:20:46.703Z,46.50
2022-08-09T20:23:13.349Z,46.80
2022-08-09T20:25:52.026Z,46.80
2022-08-09T20:28:27.867Z,46.70
2022-08-09T20:31:02.627Z,46.60
2022-08-09T20:33:39.215Z,46.60
2022-08-09T20:36:08.571Z,46.70
2022-08-09T20:39:02.892Z,46.90
2022-08-09T20:41:32.255Z,46.80
2022-08-09T20:44:04.074Z,46.80
2022-08-09T20:46:42.887Z,46.70
2022-08-09T20:49:15.970Z,46.70
2022-08-09T20:51:44.017Z,47.00
2022-08-09T20:54:16.820Z,47.00
2022-08-09T20:56:46.888Z,46.90
2022-08-09T20:59:17.257Z,46.90
2022-08-09T21:01:50.380Z,47.00
2022-08-09T21:05:54.870Z,47.00
2022-08-09T21:07:11.483Z,47.00
2022-08-09T21:09:55.262Z,47.00
2022-08-09T21:15:12.964Z,47.30
2022-08-09T21:18:22.214Z,47.60
2022-08-09T21:20:30.384Z,47.60
2022-08-09T21:22:57.953Z,47.60
2022-08-09T21:25:55.539Z,47.40
2022-08-09T21:28:34.470Z,47.40
2022-08-09T21:31:16.648Z,47.50
2022-08-09T21:33:50.779Z,47.10
2022-08-09T21:36:18.972Z,47.60
2022-08-09T21:38:45.692Z,47.80
2022-08-09T21:41:25.557Z,48.20
2022-08-09T21:44:10.408Z,47.60
2022-08-09T21:46:37.049Z,47.90
2022-08-09T21:49:03.874Z,47.80
2022-08-09T21:51:36.403Z,47.80
2022-08-09T21:54:10.591Z,47.90
2022-08-09T21:56:44.623Z,48.00
2022-08-09T21:59:25.383Z,48.10
2022-08-09T22:02:00.369Z,48.10
2022-08-09T22:04:55.074Z,48.10
2022-08-09T22:07:35.540Z,48.10
2022-08-09T22:10:02.065Z,48.30
2022-08-09T22:12:30.818Z,48.40
2022-08-09T22:14:58.711Z,48.40
2022-08-09T22:17:31.785Z,48.50
2022-08-09T22:20:00.075Z,48.80
2022-08-09T22:22:30.931Z,49.30
2022-08-09T22:26:07.089Z,49.20
2022-08-09T22:27:47.248Z,49.50
2022-08-09T22:30:15.344Z,50.00
2022-08-09T22:32:53.229Z,50.80
2022-08-09T22:36:02.592Z,51.80
2022-08-09T22:38:07.992Z,52.00
2022-08-09T22:40:35.090Z,52.70
2022-08-09T22:43:16.125Z,52.90
2022-08-09T22:48:10.776Z,53.00
2022-08-09T22:48:36.313Z,53.30
2022-08-09T22:51:10.441Z,53.30
2022-08-09T22:53:58.269Z,53.40
2022-08-09T22:56:33.460Z,53.00
2022-08-09T22:59:05.815Z,52.90
2022-08-09T23:01:50.993Z,52.80
2022-08-09T23:04:18.077Z,52.40
2022-08-09T23:07:03.381Z,52.20
2022-08-09T23:09:38.388Z,51.80
2022-08-09T23:12:05.133Z,51.90
2022-08-09T23:14:42.125Z,52.10
2022-08-09T23:17:09.953Z,52.30
2022-08-09T23:20:06.903Z,52.60
2022-08-09T23:22:23.315Z,52.60
2022-08-09T23:24:49.941Z,52.20
2022-08-09T23:27:16.579Z,51.60
2022-08-09T23:29:43.232Z,51.60
2022-08-09T23:32:09.898Z,51.80
2022-08-09T23:34:36.752Z,51.70
2022-08-09T23:37:04.690Z,51.60
2022-08-09T23:39:31.487Z,51.50
2022-08-09T23:41:58.368Z,51.80
2022-08-09T23:44:25.056Z,51.90
2022-08-09T23:46:57.190Z,51.80
2022-08-09T23:49:24.793Z,52.00
2022-08-09T23:51:52.017Z,51.70
2022-08-09T23:54:19.734Z,51.60
2022-08-09T23:56:54.192Z,51.60
2022-08-09T23:59:23.721Z,51.90
